Coatopa, Alabama
Current Conditions -  °F | °C
As of 10:15 AM on Monday 24 Nov 2014 (Local Time) from KDYA Reporting Station
Clear Clear  
Wind Chill: 68°   Ceiling: Unl
Heat Index: 68°   Visibility: 10mi
Dew Point: 48°   Wind: 9mph
Humidity: 48%   Direction: 250°WSW
Pressure: 29.86"   Gusts: NA
Location:  32.5804°N, 88.1249°W
Report Text: KDYA 241615Z AUTO 25008KT 10SM CLR 20/09 A2986 RMK AO2 T02010089
Loading
Personal Weather Stations






























Interactive Weather Map New forecast layout! Learn more

10-Day Weather Forecast

Advertisements
Track Severe Weather on mobile